sensor_id;sensor_type;location;lat;lon;timestamp;pressure;altitude;pressure_sealevel;temperature;humidity
48027;BME280;50714;49.208;5.364;2022-09-03T00:03:43;98848.09;;;22.21;47.05
48027;BME280;50714;49.208;5.364;2022-09-03T00:14:03;98853.97;;;22.14;46.72
48027;BME280;50714;49.208;5.364;2022-09-03T00:24:09;98839.34;;;22.19;45.90
48027;BME280;50714;49.208;5.364;2022-09-03T00:34:33;98843.41;;;22.21;48.60
48027;BME280;50714;49.208;5.364;2022-09-03T01:15:16;98857.34;;;21.82;49.65
48027;BME280;50714;49.208;5.364;2022-09-03T01:25:48;98841.66;;;21.83;51.03
48027;BME280;50714;49.208;5.364;2022-09-03T01:46:29;98841.91;;;21.86;51.54
48027;BME280;50714;49.208;5.364;2022-09-03T02:07:07;98854.59;;;21.82;49.23
48027;BME280;50714;49.208;5.364;2022-09-03T02:17:09;98850.38;;;21.66;49.06
48027;BME280;50714;49.208;5.364;2022-09-03T02:27:09;98845.44;;;21.39;49.53
48027;BME280;50714;49.208;5.364;2022-09-03T02:37:14;98849.78;;;21.45;51.00
48027;BME280;50714;49.208;5.364;2022-09-03T02:47:15;98850.94;;;21.39;50.39
48027;BME280;50714;49.208;5.364;2022-09-03T02:57:15;98847.16;;;21.30;50.72
48027;BME280;50714;49.208;5.364;2022-09-03T03:07:16;98848.97;;;21.44;50.77
48027;BME280;50714;49.208;5.364;2022-09-03T03:17:16;98859.41;;;21.42;50.85
48027;BME280;50714;49.208;5.364;2022-09-03T03:27:17;98859.63;;;21.22;51.22
48027;BME280;50714;49.208;5.364;2022-09-03T03:37:18;98848.69;;;21.12;51.39
48027;BME280;50714;49.208;5.364;2022-09-03T03:47:18;98851.72;;;21.10;51.42
48027;BME280;50714;49.208;5.364;2022-09-03T03:57:19;98854.22;;;21.07;51.56
48027;BME280;50714;49.208;5.364;2022-09-03T04:07:20;98849.09;;;20.95;51.94
48027;BME280;50714;49.208;5.364;2022-09-03T04:17:20;98858.22;;;20.86;52.89
48027;BME280;50714;49.208;5.364;2022-09-03T04:27:21;98856.53;;;20.95;52.81
48027;BME280;50714;49.208;5.364;2022-09-03T04:37:21;98854.59;;;20.56;52.36
48027;BME280;50714;49.208;5.364;2022-09-03T04:47:21;98861.41;;;20.64;52.68
48027;BME280;50714;49.208;5.364;2022-09-03T04:57:22;98865.81;;;20.60;53.05
48027;BME280;50714;49.208;5.364;2022-09-03T05:07:23;98882.66;;;20.38;53.72
48027;BME280;50714;49.208;5.364;2022-09-03T05:17:23;98876.06;;;20.34;54.26
48027;BME280;50714;49.208;5.364;2022-09-03T05:27:23;98878.22;;;20.47;54.49
48027;BME280;50714;49.208;5.364;2022-09-03T05:37:24;98882.91;;;20.41;54.74
48027;BME280;50714;49.208;5.364;2022-09-03T05:47:24;98893.50;;;20.58;55.35
48027;BME280;50714;49.208;5.364;2022-09-03T05:57:25;98893.44;;;20.73;55.04
48027;BME280;50714;49.208;5.364;2022-09-03T06:07:25;98899.41;;;20.81;54.92
48027;BME280;50714;49.208;5.364;2022-09-03T06:17:26;98901.25;;;20.90;54.97
48027;BME280;50714;49.208;5.364;2022-09-03T06:27:27;98903.38;;;21.66;54.83
48027;BME280;50714;49.208;5.364;2022-09-03T06:37:28;98908.91;;;22.57;54.29
48027;BME280;50714;49.208;5.364;2022-09-03T06:47:28;98905.63;;;23.62;53.26
48027;BME280;50714;49.208;5.364;2022-09-03T06:57:29;98909.69;;;24.52;51.70
48027;BME280;50714;49.208;5.364;2022-09-03T07:07:29;98915.41;;;24.92;50.72
48027;BME280;50714;49.208;5.364;2022-09-03T07:17:30;98914.81;;;24.81;50.34
48027;BME280;50714;49.208;5.364;2022-09-03T07:27:30;98923.59;;;24.83;50.08
48027;BME280;50714;49.208;5.364;2022-09-03T07:37:31;98924.44;;;25.20;49.53
48027;BME280;50714;49.208;5.364;2022-09-03T07:47:32;98932.31;;;25.79;48.90
48027;BME280;50714;49.208;5.364;2022-09-03T07:57:33;98947.47;;;26.13;47.98
48027;BME280;50714;49.208;5.364;2022-09-03T08:07:34;98951.63;;;26.33;47.46
48027;BME280;50714;49.208;5.364;2022-09-03T08:17:34;98946.22;;;26.93;46.89
48027;BME280;50714;49.208;5.364;2022-09-03T08:27:34;98955.22;;;27.50;46.11
48027;BME280;50714;49.208;5.364;2022-09-03T08:37:35;98953.69;;;28.43;45.10
48027;BME280;50714;49.208;5.364;2022-09-03T08:47:48;98952.22;;;33.07;39.29
48027;BME280;50714;49.208;5.364;2022-09-03T08:58:03;98961.63;;;31.89;37.08
48027;BME280;50714;49.208;5.364;2022-09-03T09:08:36;98970.78;;;29.66;38.89
48027;BME280;50714;49.208;5.364;2022-09-03T09:29:04;98975.06;;;28.42;41.60
48027;BME280;50714;49.208;5.364;2022-09-03T09:39:10;98954.50;;;29.02;41.88
48027;BME280;50714;49.208;5.364;2022-09-03T09:49:28;98961.69;;;30.84;39.48
48027;BME280;50714;49.208;5.364;2022-09-03T09:59:30;98968.88;;;32.21;38.50
48027;BME280;50714;49.208;5.364;2022-09-03T10:09:32;98969.19;;;33.17;38.47
48027;BME280;50714;49.208;5.364;2022-09-03T10:30:19;98962.66;;;34.29;34.12
48027;BME280;50714;49.208;5.364;2022-09-03T10:40:41;98959.13;;;32.62;33.82
48027;BME280;50714;49.208;5.364;2022-09-03T10:50:58;98950.41;;;32.48;35.47
48027;BME280;50714;49.208;5.364;2022-09-03T11:01:12;98956.41;;;38.44;29.60
48027;BME280;50714;49.208;5.364;2022-09-03T11:11:46;98958.03;;;40.96;24.06
48027;BME280;50714;49.208;5.364;2022-09-03T11:21:48;98961.19;;;40.05;27.86
48027;BME280;50714;49.208;5.364;2022-09-03T11:32:15;98947.81;;;40.13;24.18
48027;BME280;50714;49.208;5.364;2022-09-03T11:42:25;98939.47;;;38.15;26.17
48027;BME280;50714;49.208;5.364;2022-09-03T11:52:30;98950.19;;;40.18;25.67
48027;BME280;50714;49.208;5.364;2022-09-03T12:03:05;98937.84;;;41.62;22.14
48027;BME280;50714;49.208;5.364;2022-09-03T12:13:32;98945.13;;;38.40;23.89
48027;BME280;50714;49.208;5.364;2022-09-03T12:23:45;98934.78;;;37.33;25.75
48027;BME280;50714;49.208;5.364;2022-09-03T12:33:53;98945.25;;;35.82;27.34
48027;BME280;50714;49.208;5.364;2022-09-03T12:43:56;98939.38;;;34.48;28.48
48027;BME280;50714;49.208;5.364;2022-09-03T12:53:57;98937.34;;;34.03;28.86
48027;BME280;50714;49.208;5.364;2022-09-03T13:14:06;98948.91;;;32.85;30.15
48027;BME280;50714;49.208;5.364;2022-09-03T13:34:30;98933.38;;;32.06;31.10
48027;BME280;50714;49.208;5.364;2022-09-03T13:54:44;98949.16;;;30.29;35.60
48027;BME280;50714;49.208;5.364;2022-09-03T14:14:55;98950.78;;;27.84;39.03
48027;BME280;50714;49.208;5.364;2022-09-03T14:25:03;98942.81;;;27.57;40.36
48027;BME280;50714;49.208;5.364;2022-09-03T15:36:51;99006.22;;;24.66;56.73
48027;BME280;50714;49.208;5.364;2022-09-03T15:47:06;99027.69;;;24.69;57.94
48027;BME280;50714;49.208;5.364;2022-09-03T15:57:25;99017.16;;;24.71;57.83
48027;BME280;50714;49.208;5.364;2022-09-03T16:17:57;99042.38;;;25.19;56.08
48027;BME280;50714;49.208;5.364;2022-09-03T16:28:17;99048.53;;;24.75;57.13
48027;BME280;50714;49.208;5.364;2022-09-03T16:38:33;99042.19;;;24.47;57.11
48027;BME280;50714;49.208;5.364;2022-09-03T16:59:10;99039.47;;;24.14;58.70
48027;BME280;50714;49.208;5.364;2022-09-03T17:30:18;99061.13;;;24.07;58.34
48027;BME280;50714;49.208;5.364;2022-09-03T17:40:31;99058.81;;;23.96;58.57
48027;BME280;50714;49.208;5.364;2022-09-03T17:51:03;99075.84;;;23.84;59.90
48027;BME280;50714;49.208;5.364;2022-09-03T18:01:18;99086.53;;;23.48;59.92
48027;BME280;50714;49.208;5.364;2022-09-03T18:11:30;99097.16;;;23.17;60.95
48027;BME280;50714;49.208;5.364;2022-09-03T18:21:36;99109.13;;;23.07;59.25
48027;BME280;50714;49.208;5.364;2022-09-03T18:31:55;99114.34;;;23.09;59.33
48027;BME280;50714;49.208;5.364;2022-09-03T18:52:59;99134.00;;;22.73;60.54
48027;BME280;50714;49.208;5.364;2022-09-03T19:13:42;99161.66;;;22.58;59.75
48027;BME280;50714;49.208;5.364;2022-09-03T19:24:01;99180.03;;;22.34;59.92
48027;BME280;50714;49.208;5.364;2022-09-03T19:34:40;99181.22;;;22.23;62.09
48027;BME280;50714;49.208;5.364;2022-09-03T19:45:11;99180.81;;;22.05;61.05
48027;BME280;50714;49.208;5.364;2022-09-03T19:55:38;99185.84;;;21.88;60.31
48027;BME280;50714;49.208;5.364;2022-09-03T20:06:03;99201.00;;;21.81;60.75
48027;BME280;50714;49.208;5.364;2022-09-03T20:16:35;99208.78;;;21.68;61.52
48027;BME280;50714;49.208;5.364;2022-09-03T20:57:51;99230.97;;;20.92;62.35
48027;BME280;50714;49.208;5.364;2022-09-03T21:08:17;99238.41;;;20.76;62.91
48027;BME280;50714;49.208;5.364;2022-09-03T21:18:44;99246.38;;;20.73;63.35
48027;BME280;50714;49.208;5.364;2022-09-03T21:39:12;99248.00;;;20.64;62.00
48027;BME280;50714;49.208;5.364;2022-09-03T21:49:17;99254.06;;;20.51;61.23
48027;BME280;50714;49.208;5.364;2022-09-03T22:09:47;99270.34;;;19.90;62.25
48027;BME280;50714;49.208;5.364;2022-09-03T22:19:51;99285.41;;;19.82;61.91
48027;BME280;50714;49.208;5.364;2022-09-03T22:40:24;99311.72;;;19.83;62.05
48027;BME280;50714;49.208;5.364;2022-09-03T22:50:54;99319.94;;;19.83;63.43
48027;BME280;50714;49.208;5.364;2022-09-03T23:01:11;99321.97;;;19.51;63.74
48027;BME280;50714;49.208;5.364;2022-09-03T23:11:23;99320.78;;;19.36;62.56
48027;BME280;50714;49.208;5.364;2022-09-03T23:21:35;99335.03;;;19.43;63.78
48027;BME280;50714;49.208;5.364;2022-09-03T23:31:38;99324.78;;;19.24;61.99
